sensor_id;sensor_type;location;lat;lon;timestamp;pressure;altitude;pressure_sealevel;temperature;humidity
75418;BME280;63997;52.112;5.420;2023-04-29T00:02:07;101597.34;;;9.40;89.89
75418;BME280;63997;52.112;5.420;2023-04-29T00:04:34;101602.94;;;9.38;90.04
75418;BME280;63997;52.112;5.420;2023-04-29T00:07:01;101606.69;;;9.37;90.25
75418;BME280;63997;52.112;5.420;2023-04-29T00:09:27;101599.00;;;9.36;90.44
75418;BME280;63997;52.112;5.420;2023-04-29T00:11:53;101605.88;;;9.37;90.50
75418;BME280;63997;52.112;5.420;2023-04-29T00:14:20;101606.94;;;9.36;90.50
75418;BME280;63997;52.112;5.420;2023-04-29T00:16:46;101610.69;;;9.35;90.54
75418;BME280;63997;52.112;5.420;2023-04-29T00:19:13;101606.16;;;9.35;90.39
75418;BME280;63997;52.112;5.420;2023-04-29T00:21:40;101607.47;;;9.38;90.42
75418;BME280;63997;52.112;5.420;2023-04-29T00:24:06;101612.25;;;9.36;90.47
75418;BME280;63997;52.112;5.420;2023-04-29T00:26:33;101610.13;;;9.38;90.34
75418;BME280;63997;52.112;5.420;2023-04-29T00:29:00;101614.34;;;9.39;90.53
75418;BME280;63997;52.112;5.420;2023-04-29T00:31:26;101614.84;;;9.41;90.38
75418;BME280;63997;52.112;5.420;2023-04-29T00:33:53;101617.50;;;9.41;90.20
75418;BME280;63997;52.112;5.420;2023-04-29T00:36:19;101625.44;;;9.41;90.57
75418;BME280;63997;52.112;5.420;2023-04-29T00:38:45;101624.38;;;9.42;90.32
75418;BME280;63997;52.112;5.420;2023-04-29T00:41:12;101623.59;;;9.41;90.33
75418;BME280;63997;52.112;5.420;2023-04-29T00:43:38;101633.94;;;9.43;90.37
75418;BME280;63997;52.112;5.420;2023-04-29T00:46:05;101628.63;;;9.43;90.14
75418;BME280;63997;52.112;5.420;2023-04-29T00:48:32;101632.34;;;9.42;90.25
75418;BME280;63997;52.112;5.420;2023-04-29T00:51:01;101629.69;;;9.42;90.20
75418;BME280;63997;52.112;5.420;2023-04-29T00:53:29;101633.41;;;9.41;90.25
75418;BME280;63997;52.112;5.420;2023-04-29T00:55:56;101632.34;;;9.42;90.19
75418;BME280;63997;52.112;5.420;2023-04-29T00:58:23;101636.06;;;9.41;90.06
75418;BME280;63997;52.112;5.420;2023-04-29T01:00:55;101628.97;;;9.36;90.20
75418;BME280;63997;52.112;5.420;2023-04-29T01:03:22;101639.31;;;9.38;90.27
75418;BME280;63997;52.112;5.420;2023-04-29T01:05:53;101644.63;;;9.38;90.07
75418;BME280;63997;52.112;5.420;2023-04-29T01:08:30;101651.50;;;9.39;90.02
75418;BME280;63997;52.112;5.420;2023-04-29T01:11:07;101648.88;;;9.39;89.98
75418;BME280;63997;52.112;5.420;2023-04-29T01:13:50;101642.47;;;9.40;90.25
75418;BME280;63997;52.112;5.420;2023-04-29T01:16:24;101650.72;;;9.38;89.72
75418;BME280;63997;52.112;5.420;2023-04-29T01:18:57;101657.91;;;9.38;89.62
75418;BME280;63997;52.112;5.420;2023-04-29T01:21:24;101664.28;;;9.37;89.96
75418;BME280;63997;52.112;5.420;2023-04-29T01:23:50;101664.88;;;9.34;89.68
75418;BME280;63997;52.112;5.420;2023-04-29T01:26:22;101661.72;;;9.32;89.53
75418;BME280;63997;52.112;5.420;2023-04-29T01:29:21;101664.66;;;9.30;89.83
75418;BME280;63997;52.112;5.420;2023-04-29T01:32:05;101666.03;;;9.27;89.62
75418;BME280;63997;52.112;5.420;2023-04-29T01:34:48;101667.13;;;9.26;89.67
75418;BME280;63997;52.112;5.420;2023-04-29T01:37:31;101668.16;;;9.25;90.03
75418;BME280;63997;52.112;5.420;2023-04-29T01:40:18;101672.69;;;9.25;89.76
75418;BME280;63997;52.112;5.420;2023-04-29T01:43:01;101666.41;;;9.21;89.56
75418;BME280;63997;52.112;5.420;2023-04-29T01:45:29;101674.38;;;9.21;89.76
75418;BME280;63997;52.112;5.420;2023-04-29T01:47:58;101675.16;;;9.21;89.70
75418;BME280;63997;52.112;5.420;2023-04-29T01:50:26;101681.25;;;9.22;90.00
75418;BME280;63997;52.112;5.420;2023-04-29T01:52:52;101674.06;;;9.22;90.05
75418;BME280;63997;52.112;5.420;2023-04-29T01:55:18;101677.22;;;9.24;89.93
75418;BME280;63997;52.112;5.420;2023-04-29T01:57:45;101680.94;;;9.23;89.84
75418;BME280;63997;52.112;5.420;2023-04-29T02:00:12;101680.94;;;9.23;89.78
75418;BME280;63997;52.112;5.420;2023-04-29T02:02:38;101680.94;;;9.23;90.03
75418;BME280;63997;52.112;5.420;2023-04-29T02:05:05;101678.78;;;9.25;89.80
75418;BME280;63997;52.112;5.420;2023-04-29T02:07:32;101684.91;;;9.26;89.77
75418;BME280;63997;52.112;5.420;2023-04-29T02:09:58;101685.69;;;9.26;89.89
75418;BME280;63997;52.112;5.420;2023-04-29T02:12:25;101691.00;;;9.26;89.78
75418;BME280;63997;52.112;5.420;2023-04-29T02:14:51;101689.91;;;9.27;89.57
75418;BME280;63997;52.112;5.420;2023-04-29T02:17:18;101687.25;;;9.27;89.63
75418;BME280;63997;52.112;5.420;2023-04-29T02:19:45;101694.94;;;9.29;89.70
75418;BME280;63997;52.112;5.420;2023-04-29T02:22:11;101701.03;;;9.30;89.85
75418;BME280;63997;52.112;5.420;2023-04-29T02:24:39;101702.88;;;9.29;89.65
75418;BME280;63997;52.112;5.420;2023-04-29T02:27:10;101710.06;;;9.28;89.39
75418;BME280;63997;52.112;5.420;2023-04-29T02:29:40;101710.56;;;9.31;89.48
75418;BME280;63997;52.112;5.420;2023-04-29T02:32:06;101709.78;;;9.30;89.44
75418;BME280;63997;52.112;5.420;2023-04-29T02:34:35;101713.72;;;9.33;89.47
75418;BME280;63997;52.112;5.420;2023-04-29T02:37:02;101711.06;;;9.33;89.20
75418;BME280;63997;52.112;5.420;2023-04-29T02:39:28;101720.63;;;9.34;89.37
75418;BME280;63997;52.112;5.420;2023-04-29T02:41:54;101728.56;;;9.34;89.08
75418;BME280;63997;52.112;5.420;2023-04-29T02:44:21;101724.84;;;9.35;89.12
75418;BME280;63997;52.112;5.420;2023-04-29T02:46:47;101724.53;;;9.36;89.19
75418;BME280;63997;52.112;5.420;2023-04-29T02:49:14;101729.38;;;9.34;89.02
75418;BME280;63997;52.112;5.420;2023-04-29T02:51:40;101737.31;;;9.34;88.99
75418;BME280;63997;52.112;5.420;2023-04-29T02:54:08;101743.91;;;9.37;88.98
75418;BME280;63997;52.112;5.420;2023-04-29T02:56:40;101737.56;;;9.38;88.80
75418;BME280;63997;52.112;5.420;2023-04-29T02:59:10;101735.94;;;9.37;88.97
75418;BME280;63997;52.112;5.420;2023-04-29T03:01:36;101740.19;;;9.38;89.00
75418;BME280;63997;52.112;5.420;2023-04-29T03:04:04;101752.69;;;9.37;88.78
75418;BME280;63997;52.112;5.420;2023-04-29T03:06:32;101749.75;;;9.39;88.88
75418;BME280;63997;52.112;5.420;2023-04-29T03:08:58;101748.66;;;9.40;88.86
75418;BME280;63997;52.112;5.420;2023-04-29T03:11:24;101751.31;;;9.40;89.03
75418;BME280;63997;52.112;5.420;2023-04-29T03:13:51;101753.97;;;9.40;88.95
75418;BME280;63997;52.112;5.420;2023-04-29T03:16:17;101763.50;;;9.41;88.90
75418;BME280;63997;52.112;5.420;2023-04-29T03:18:44;101763.50;;;9.41;89.00
75418;BME280;63997;52.112;5.420;2023-04-29T03:21:10;101767.25;;;9.40;88.71
75418;BME280;63997;52.112;5.420;2023-04-29T03:23:37;101772.00;;;9.43;88.63
75418;BME280;63997;52.112;5.420;2023-04-29T03:26:09;101769.34;;;9.43;88.76
75418;BME280;63997;52.112;5.420;2023-04-29T03:28:40;101759.78;;;9.42;88.39
75418;BME280;63997;52.112;5.420;2023-04-29T03:31:07;101767.72;;;9.42;88.28
75418;BME280;63997;52.112;5.420;2023-04-29T03:33:33;101772.56;;;9.40;88.15
75418;BME280;63997;52.112;5.420;2023-04-29T03:36:00;101768.81;;;9.41;88.21
75418;BME280;63997;52.112;5.420;2023-04-29T03:38:26;101765.66;;;9.39;87.57
75418;BME280;63997;52.112;5.420;2023-04-29T03:40:53;101767.25;;;9.40;87.32
75418;BME280;63997;52.112;5.420;2023-04-29T03:43:22;101770.97;;;9.39;87.15
75418;BME280;63997;52.112;5.420;2023-04-29T03:45:53;101775.22;;;9.40;86.61
75418;BME280;63997;52.112;5.420;2023-04-29T03:48:19;101780.53;;;9.40;86.67
75418;BME280;63997;52.112;5.420;2023-04-29T03:50:46;101780.53;;;9.40;86.65
75418;BME280;63997;52.112;5.420;2023-04-29T03:53:14;101785.03;;;9.39;86.51
75418;BME280;63997;52.112;5.420;2023-04-29T03:55:40;101786.63;;;9.40;86.44
75418;BME280;63997;52.112;5.420;2023-04-29T03:58:07;101788.19;;;9.41;86.22
75418;BME280;63997;52.112;5.420;2023-04-29T04:00:34;101785.25;;;9.43;85.86
75418;BME280;63997;52.112;5.420;2023-04-29T04:03:02;101794.28;;;9.42;85.85
75418;BME280;63997;52.112;5.420;2023-04-29T04:05:31;101795.38;;;9.41;85.68
75418;BME280;63997;52.112;5.420;2023-04-29T04:08:00;101799.09;;;9.40;85.46
75418;BME280;63997;52.112;5.420;2023-04-29T04:10:26;101801.75;;;9.40;84.96
75418;BME280;63997;52.112;5.420;2023-04-29T04:12:54;101801.47;;;9.41;84.77
75418;BME280;63997;52.112;5.420;2023-04-29T04:15:20;101797.53;;;9.39;84.73
75418;BME280;63997;52.112;5.420;2023-04-29T04:17:47;101800.69;;;9.41;84.81
75418;BME280;63997;52.112;5.420;2023-04-29T04:20:14;101807.06;;;9.40;84.88
75418;BME280;63997;52.112;5.420;2023-04-29T04:22:42;101809.44;;;9.41;84.87
75418;BME280;63997;52.112;5.420;2023-04-29T04:25:24;101804.13;;;9.41;84.52
75418;BME280;63997;52.112;5.420;2023-04-29T04:27:54;101808.63;;;9.41;84.53
75418;BME280;63997;52.112;5.420;2023-04-29T04:30:21;101799.09;;;9.40;84.70
75418;BME280;63997;52.112;5.420;2023-04-29T04:32:48;101807.34;;;9.38;84.59
75418;BME280;63997;52.112;5.420;2023-04-29T04:35:16;101814.53;;;9.38;83.99
75418;BME280;63997;52.112;5.420;2023-04-29T04:37:43;101818.75;;;9.39;83.87
75418;BME280;63997;52.112;5.420;2023-04-29T04:40:12;101821.41;;;9.39;83.85
75418;BME280;63997;52.112;5.420;2023-04-29T04:42:40;101830.97;;;9.40;83.83
75418;BME280;63997;52.112;5.420;2023-04-29T04:45:11;101829.38;;;9.39;84.09
75418;BME280;63997;52.112;5.420;2023-04-29T04:47:39;101837.84;;;9.41;84.23
75418;BME280;63997;52.112;5.420;2023-04-29T04:50:07;101838.63;;;9.41;84.33
75418;BME280;63997;52.112;5.420;2023-04-29T04:52:34;101843.16;;;9.41;84.32
75418;BME280;63997;52.112;5.420;2023-04-29T04:55:00;101858.78;;;9.42;84.24
75418;BME280;63997;52.112;5.420;2023-04-29T04:57:27;101852.44;;;9.43;84.47
75418;BME280;63997;52.112;5.420;2023-04-29T04:59:53;101854.78;;;9.45;84.57
75418;BME280;63997;52.112;5.420;2023-04-29T05:02:20;101859.81;;;9.46;84.58
75418;BME280;63997;52.112;5.420;2023-04-29T05:04:47;101865.63;;;9.48;84.57
75418;BME280;63997;52.112;5.420;2023-04-29T05:07:18;101868.78;;;9.50;84.62
75418;BME280;63997;52.112;5.420;2023-04-29T05:09:48;101866.91;;;9.51;84.79
75418;BME280;63997;52.112;5.420;2023-04-29T05:12:14;101867.16;;;9.54;84.58
75418;BME280;63997;52.112;5.420;2023-04-29T05:14:42;101871.38;;;9.56;84.85
75418;BME280;63997;52.112;5.420;2023-04-29T05:17:08;101873.75;;;9.57;84.20
75418;BME280;63997;52.112;5.420;2023-04-29T05:19:35;101877.41;;;9.61;84.35
75418;BME280;63997;52.112;5.420;2023-04-29T05:22:03;101876.03;;;9.64;84.74
75418;BME280;63997;52.112;5.420;2023-04-29T05:24:42;101882.38;;;9.68;84.63
75418;BME280;63997;52.112;5.420;2023-04-29T05:27:14;101884.16;;;9.72;84.57
75418;BME280;63997;52.112;5.420;2023-04-29T05:29:44;101879.88;;;9.76;84.18
75418;BME280;63997;52.112;5.420;2023-04-29T05:32:11;101887.72;;;9.81;84.69
75418;BME280;63997;52.112;5.420;2023-04-29T05:34:42;101891.09;;;9.87;84.68
75418;BME280;63997;52.112;5.420;2023-04-29T05:37:11;101890.47;;;9.95;84.23
75418;BME280;63997;52.112;5.420;2023-04-29T05:39:38;101902.38;;;9.98;84.15
75418;BME280;63997;52.112;5.420;2023-04-29T05:42:05;101890.69;;;9.99;84.15
75418;BME280;63997;52.112;5.420;2023-04-29T05:44:34;101895.72;;;10.00;83.89
75418;BME280;63997;52.112;5.420;2023-04-29T05:47:03;101897.00;;;10.03;84.11
75418;BME280;63997;52.112;5.420;2023-04-29T05:49:29;101900.81;;;10.16;84.06
75418;BME280;63997;52.112;5.420;2023-04-29T05:51:56;101894.06;;;10.23;83.40
75418;BME280;63997;52.112;5.420;2023-04-29T05:54:22;101905.69;;;10.27;82.88
75418;BME280;63997;52.112;5.420;2023-04-29T05:56:49;101910.94;;;10.32;82.91
75418;BME280;63997;52.112;5.420;2023-04-29T05:59:15;101912.13;;;10.40;81.94
75418;BME280;63997;52.112;5.420;2023-04-29T06:01:41;101914.41;;;10.47;82.30
75418;BME280;63997;52.112;5.420;2023-04-29T06:04:09;101916.41;;;10.55;82.60
75418;BME280;63997;52.112;5.420;2023-04-29T06:06:37;101924.50;;;10.64;82.29
75418;BME280;63997;52.112;5.420;2023-04-29T06:09:04;101923.34;;;10.70;81.90
75418;BME280;63997;52.112;5.420;2023-04-29T06:11:41;101927.09;;;10.82;82.64
75418;BME280;63997;52.112;5.420;2023-04-29T06:14:09;101927.69;;;10.93;81.58
75418;BME280;63997;52.112;5.420;2023-04-29T06:16:36;101936.47;;;10.94;81.86
75418;BME280;63997;52.112;5.420;2023-04-29T06:19:03;101937.25;;;10.94;81.67
75418;BME280;63997;52.112;5.420;2023-04-29T06:21:29;101946.53;;;10.97;81.85
75418;BME280;63997;52.112;5.420;2023-04-29T06:23:57;101947.63;;;11.09;82.05
75418;BME280;63997;52.112;5.420;2023-04-29T06:26:23;101951.50;;;11.17;81.82
75418;BME280;63997;52.112;5.420;2023-04-29T06:28:50;101952.91;;;11.28;81.51
75418;BME280;63997;52.112;5.420;2023-04-29T06:31:16;101955.53;;;11.42;80.75
75418;BME280;63997;52.112;5.420;2023-04-29T06:33:43;101953.56;;;11.48;80.62
75418;BME280;63997;52.112;5.420;2023-04-29T06:36:09;101963.22;;;11.44;79.40
75418;BME280;63997;52.112;5.420;2023-04-29T06:38:35;101961.06;;;11.18;79.74
75418;BME280;63997;52.112;5.420;2023-04-29T06:41:02;101957.09;;;11.02;79.77
75418;BME280;63997;52.112;5.420;2023-04-29T06:43:30;101971.50;;;11.01;80.22
75418;BME280;63997;52.112;5.420;2023-04-29T06:45:57;101978.81;;;11.23;80.59
75418;BME280;63997;52.112;5.420;2023-04-29T06:48:27;101984.44;;;11.21;80.52
75418;BME280;63997;52.112;5.420;2023-04-29T06:50:55;101995.06;;;11.21;81.11
75418;BME280;63997;52.112;5.420;2023-04-29T06:53:22;101991.03;;;11.37;79.63
75418;BME280;63997;52.112;5.420;2023-04-29T06:55:49;101994.22;;;11.53;79.67
75418;BME280;63997;52.112;5.420;2023-04-29T06:58:17;102005.16;;;11.52;78.58
75418;BME280;63997;52.112;5.420;2023-04-29T07:00:48;102003.09;;;11.49;78.96
75418;BME280;63997;52.112;5.420;2023-04-29T07:03:16;102003.09;;;11.49;77.79
75418;BME280;63997;52.112;5.420;2023-04-29T07:05:44;102003.94;;;11.99;77.68
75418;BME280;63997;52.112;5.420;2023-04-29T07:08:11;102010.94;;;12.09;76.60
75418;BME280;63997;52.112;5.420;2023-04-29T07:10:39;102014.03;;;12.61;76.65
75418;BME280;63997;52.112;5.420;2023-04-29T07:13:05;102018.56;;;12.83;73.93
75418;BME280;63997;52.112;5.420;2023-04-29T07:15:35;102014.53;;;12.63;73.17
75418;BME280;63997;52.112;5.420;2023-04-29T07:18:03;102028.19;;;12.25;75.28
75418;BME280;63997;52.112;5.420;2023-04-29T07:20:30;102022.34;;;12.23;75.15
75418;BME280;63997;52.112;5.420;2023-04-29T07:22:57;102031.19;;;12.91;73.18
75418;BME280;63997;52.112;5.420;2023-04-29T07:25:25;102030.34;;;13.84;71.20
75418;BME280;63997;52.112;5.420;2023-04-29T07:27:54;102030.03;;;14.02;69.43
75418;BME280;63997;52.112;5.420;2023-04-29T07:30:21;102024.75;;;14.20;69.93
75418;BME280;63997;52.112;5.420;2023-04-29T07:32:48;102036.09;;;14.51;69.46
75418;BME280;63997;52.112;5.420;2023-04-29T07:35:15;102034.41;;;15.02;67.24
75418;BME280;63997;52.112;5.420;2023-04-29T07:37:41;102046.44;;;14.36;65.99
75418;BME280;63997;52.112;5.420;2023-04-29T07:40:09;102045.31;;;13.93;68.38
75418;BME280;63997;52.112;5.420;2023-04-29T07:42:36;102038.97;;;13.72;69.79
75418;BME280;63997;52.112;5.420;2023-04-29T07:45:03;102044.91;;;13.69;67.45
75418;BME280;63997;52.112;5.420;2023-04-29T07:47:29;102053.06;;;13.55;69.22
75418;BME280;63997;52.112;5.420;2023-04-29T07:49:56;102058.66;;;13.85;69.64
75418;BME280;63997;52.112;5.420;2023-04-29T07:52:22;102052.66;;;13.79;68.75
75418;BME280;63997;52.112;5.420;2023-04-29T07:54:49;102056.53;;;14.21;66.16
75418;BME280;63997;52.112;5.420;2023-04-29T07:57:15;102059.34;;;14.16;65.06
75418;BME280;63997;52.112;5.420;2023-04-29T07:59:41;102067.16;;;13.95;67.15
75418;BME280;63997;52.112;5.420;2023-04-29T08:02:08;102056.66;;;14.08;65.92
75418;BME280;63997;52.112;5.420;2023-04-29T08:04:38;102065.94;;;14.10;65.27
75418;BME280;63997;52.112;5.420;2023-04-29T08:07:05;102069.00;;;14.61;66.04
75418;BME280;63997;52.112;5.420;2023-04-29T08:09:31;102074.19;;;14.66;63.71
75418;BME280;63997;52.112;5.420;2023-04-29T08:11:58;102075.25;;;14.30;64.24
75418;BME280;63997;52.112;5.420;2023-04-29T08:14:24;102076.84;;;14.31;64.33
75418;BME280;63997;52.112;5.420;2023-04-29T08:16:51;102081.28;;;14.62;63.60
75418;BME280;63997;52.112;5.420;2023-04-29T08:19:21;102078.91;;;14.69;63.08
75418;BME280;63997;52.112;5.420;2023-04-29T08:21:47;102080.66;;;14.82;63.23
75418;BME280;63997;52.112;5.420;2023-04-29T08:24:14;102086.94;;;14.86;62.50
75418;BME280;63997;52.112;5.420;2023-04-29T08:26:40;102087.25;;;14.67;60.43
75418;BME280;63997;52.112;5.420;2023-04-29T08:29:07;102086.16;;;14.42;62.41
75418;BME280;63997;52.112;5.420;2023-04-29T08:31:35;102091.75;;;14.06;63.19
75418;BME280;63997;52.112;5.420;2023-04-29T08:34:01;102097.69;;;13.94;62.42
75418;BME280;63997;52.112;5.420;2023-04-29T08:36:28;102099.84;;;13.75;64.26
75418;BME280;63997;52.112;5.420;2023-04-29T08:38:55;102094.63;;;13.70;64.14
75418;BME280;63997;52.112;5.420;2023-04-29T08:41:21;102094.28;;;13.63;63.80
75418;BME280;63997;52.112;5.420;2023-04-29T08:43:48;102085.09;;;13.95;63.87
75418;BME280;63997;52.112;5.420;2023-04-29T08:46:14;102099.19;;;14.35;62.70
75418;BME280;63997;52.112;5.420;2023-04-29T08:48:42;102097.03;;;14.54;64.29
75418;BME280;63997;52.112;5.420;2023-04-29T08:51:11;102100.81;;;14.88;62.84
75418;BME280;63997;52.112;5.420;2023-04-29T08:53:39;102099.84;;;14.84;61.60
75418;BME280;63997;52.112;5.420;2023-04-29T08:56:15;102100.00;;;14.53;61.34
75418;BME280;63997;52.112;5.420;2023-04-29T08:58:43;102103.44;;;14.45;64.08
75418;BME280;63997;52.112;5.420;2023-04-29T09:01:13;102099.72;;;14.54;62.04
75418;BME280;63997;52.112;5.420;2023-04-29T09:04:00;102107.69;;;14.28;62.26
75418;BME280;63997;52.112;5.420;2023-04-29T09:06:29;102116.34;;;14.25;62.40
75418;BME280;63997;52.112;5.420;2023-04-29T09:08:59;102115.19;;;14.00;61.90
75418;BME280;63997;52.112;5.420;2023-04-29T09:11:28;102119.50;;;13.79;62.80
75418;BME280;63997;52.112;5.420;2023-04-29T09:13:59;102117.16;;;13.77;63.51
75418;BME280;63997;52.112;5.420;2023-04-29T09:16:29;102121.06;;;13.80;63.40
75418;BME280;63997;52.112;5.420;2023-04-29T09:18:56;102123.75;;;13.80;61.93
75418;BME280;63997;52.112;5.420;2023-04-29T09:21:24;102127.75;;;14.00;63.06
75418;BME280;63997;52.112;5.420;2023-04-29T09:23:52;102121.84;;;14.29;62.23
75418;BME280;63997;52.112;5.420;2023-04-29T09:26:19;102123.75;;;14.28;62.68
75418;BME280;63997;52.112;5.420;2023-04-29T09:28:46;102130.66;;;14.29;62.32
75418;BME280;63997;52.112;5.420;2023-04-29T09:31:13;102123.13;;;14.40;61.02
75418;BME280;63997;52.112;5.420;2023-04-29T09:33:53;102134.00;;;14.44;62.48
75418;BME280;63997;52.112;5.420;2023-04-29T09:36:37;102133.09;;;14.74;63.04
75418;BME280;63997;52.112;5.420;2023-04-29T09:39:04;102134.03;;;14.78;61.14
75418;BME280;63997;52.112;5.420;2023-04-29T09:41:40;102146.81;;;14.55;61.82
75418;BME280;63997;52.112;5.420;2023-04-29T09:44:08;102147.41;;;14.52;62.09
75418;BME280;63997;52.112;5.420;2023-04-29T09:46:35;102139.88;;;14.80;61.10
75418;BME280;63997;52.112;5.420;2023-04-29T09:49:02;102142.22;;;14.91;60.66
75418;BME280;63997;52.112;5.420;2023-04-29T09:51:32;102153.13;;;14.77;61.81
75418;BME280;63997;52.112;5.420;2023-04-29T09:53:59;102138.94;;;14.59;61.17
75418;BME280;63997;52.112;5.420;2023-04-29T09:56:26;102152.34;;;14.76;61.29
75418;BME280;63997;52.112;5.420;2023-04-29T09:59:06;102152.34;;;14.94;61.82
75418;BME280;63997;52.112;5.420;2023-04-29T10:01:33;102147.44;;;14.96;59.98
75418;BME280;63997;52.112;5.420;2023-04-29T10:04:00;102154.69;;;14.61;60.20
75418;BME280;63997;52.112;5.420;2023-04-29T10:06:28;102157.03;;;14.53;60.24
75418;BME280;63997;52.112;5.420;2023-04-29T10:08:54;102150.72;;;14.75;60.22
75418;BME280;63997;52.112;5.420;2023-04-29T10:11:21;102153.25;;;14.98;59.76
75418;BME280;63997;52.112;5.420;2023-04-29T10:13:49;102159.25;;;15.12;59.78
75418;BME280;63997;52.112;5.420;2023-04-29T10:16:30;102148.50;;;15.29;59.69
75418;BME280;63997;52.112;5.420;2023-04-29T10:19:03;102150.84;;;15.31;59.83
75418;BME280;63997;52.112;5.420;2023-04-29T10:21:30;102150.81;;;15.48;58.99
75418;BME280;63997;52.112;5.420;2023-04-29T10:23:57;102152.47;;;15.79;59.22
75418;BME280;63997;52.112;5.420;2023-04-29T10:26:28;102155.53;;;15.51;57.76
75418;BME280;63997;52.112;5.420;2023-04-29T10:28:55;102157.19;;;15.18;59.50
75418;BME280;63997;52.112;5.420;2023-04-29T10:31:24;102154.66;;;15.13;57.53
75418;BME280;63997;52.112;5.420;2023-04-29T10:33:54;102161.78;;;14.91;57.85
75418;BME280;63997;52.112;5.420;2023-04-29T10:36:22;102155.16;;;14.97;57.04
75418;BME280;63997;52.112;5.420;2023-04-29T10:38:53;102157.53;;;14.73;57.75
75418;BME280;63997;52.112;5.420;2023-04-29T10:41:23;102158.94;;;14.62;58.73
75418;BME280;63997;52.112;5.420;2023-04-29T10:43:52;102155.16;;;14.71;59.31
75418;BME280;63997;52.112;5.420;2023-04-29T10:46:20;102164.28;;;14.62;58.58
75418;BME280;63997;52.112;5.420;2023-04-29T10:48:55;102167.53;;;14.41;59.50
75418;BME280;63997;52.112;5.420;2023-04-29T10:51:33;102164.13;;;14.67;60.01
75418;BME280;63997;52.112;5.420;2023-04-29T10:54:03;102166.66;;;14.89;59.44
75418;BME280;63997;52.112;5.420;2023-04-29T10:59:15;102157.59;;;15.46;58.75
75418;BME280;63997;52.112;5.420;2023-04-29T11:01:52;102172.09;;;15.53;58.42
75418;BME280;63997;52.112;5.420;2023-04-29T11:04:20;102155.75;;;15.38;56.65
75418;BME280;63997;52.112;5.420;2023-04-29T11:06:54;102153.84;;;15.29;57.05
75418;BME280;63997;52.112;5.420;2023-04-29T11:09:29;102156.06;;;15.27;57.67
75418;BME280;63997;52.112;5.420;2023-04-29T11:12:03;102164.13;;;15.19;56.14
75418;BME280;63997;52.112;5.420;2023-04-29T11:14:39;102167.59;;;15.11;58.08
75418;BME280;63997;52.112;5.420;2023-04-29T11:17:08;102166.00;;;15.27;58.24
75418;BME280;63997;52.112;5.420;2023-04-29T11:19:42;102158.03;;;15.74;58.02
75418;BME280;63997;52.112;5.420;2023-04-29T11:24:57;102164.88;;;16.22;56.46
75418;BME280;63997;52.112;5.420;2023-04-29T11:27:30;102165.00;;;16.34;55.10
75418;BME280;63997;52.112;5.420;2023-04-29T11:29:58;102163.03;;;16.43;52.40
75418;BME280;63997;52.112;5.420;2023-04-29T11:32:29;102166.44;;;15.93;55.11
75418;BME280;63997;52.112;5.420;2023-04-29T11:35:13;102168.31;;;16.01;55.96
75418;BME280;63997;52.112;5.420;2023-04-29T11:37:41;102162.56;;;16.41;53.07
75418;BME280;63997;52.112;5.420;2023-04-29T11:40:08;102158.44;;;16.64;52.39
75418;BME280;63997;52.112;5.420;2023-04-29T11:42:41;102158.00;;;16.83;52.06
75418;BME280;63997;52.112;5.420;2023-04-29T11:45:09;102164.69;;;17.31;52.10
75418;BME280;63997;52.112;5.420;2023-04-29T11:47:35;102169.16;;;17.27;52.52
75418;BME280;63997;52.112;5.420;2023-04-29T11:50:04;102166.94;;;16.75;51.13
75418;BME280;63997;52.112;5.420;2023-04-29T11:52:31;102168.19;;;16.48;52.75
75418;BME280;63997;52.112;5.420;2023-04-29T11:54:58;102158.81;;;16.84;52.15
75418;BME280;63997;52.112;5.420;2023-04-29T11:57:25;102164.47;;;17.03;49.32
75418;BME280;63997;52.112;5.420;2023-04-29T11:59:52;102164.47;;;17.36;51.17
75418;BME280;63997;52.112;5.420;2023-04-29T12:02:22;102165.22;;;17.70;49.52
75418;BME280;63997;52.112;5.420;2023-04-29T12:04:49;102163.91;;;17.88;48.96
75418;BME280;63997;52.112;5.420;2023-04-29T12:07:16;102170.97;;;17.93;50.95
75418;BME280;63997;52.112;5.420;2023-04-29T12:09:43;102169.72;;;17.33;49.70
75418;BME280;63997;52.112;5.420;2023-04-29T12:12:11;102176.63;;;17.22;51.45
75418;BME280;63997;52.112;5.420;2023-04-29T12:14:38;102161.72;;;17.57;52.88
75418;BME280;63997;52.112;5.420;2023-04-29T12:17:05;102171.88;;;17.85;51.22
75418;BME280;63997;52.112;5.420;2023-04-29T12:19:32;102165.03;;;18.12;50.32
75418;BME280;63997;52.112;5.420;2023-04-29T12:22:01;102170.31;;;18.08;50.62
75418;BME280;63997;52.112;5.420;2023-04-29T12:24:32;102159.00;;;17.90;50.21
75418;BME280;63997;52.112;5.420;2023-04-29T12:26:59;102162.41;;;17.66;49.04
75418;BME280;63997;52.112;5.420;2023-04-29T12:29:25;102164.81;;;17.92;48.36
75418;BME280;63997;52.112;5.420;2023-04-29T12:31:52;102163.91;;;18.25;48.64
75418;BME280;63997;52.112;5.420;2023-04-29T12:34:28;102159.16;;;18.34;48.57
75418;BME280;63997;52.112;5.420;2023-04-29T12:36:57;102157.78;;;18.53;47.79
75418;BME280;63997;52.112;5.420;2023-04-29T12:39:27;102154.06;;;18.57;47.01
75418;BME280;63997;52.112;5.420;2023-04-29T12:41:56;102158.72;;;18.32;47.91
75418;BME280;63997;52.112;5.420;2023-04-29T12:44:24;102165.38;;;17.98;48.82
75418;BME280;63997;52.112;5.420;2023-04-29T12:46:51;102162.78;;;17.89;49.82
75418;BME280;63997;52.112;5.420;2023-04-29T12:49:23;102168.72;;;18.32;49.11
75418;BME280;63997;52.112;5.420;2023-04-29T12:51:50;102172.16;;;18.44;49.58
75418;BME280;63997;52.112;5.420;2023-04-29T12:54:16;102176.25;;;18.26;48.76
75418;BME280;63997;52.112;5.420;2023-04-29T12:56:43;102177.59;;;17.95;49.95
75418;BME280;63997;52.112;5.420;2023-04-29T12:59:09;102179.06;;;18.05;48.55
75418;BME280;63997;52.112;5.420;2023-04-29T13:01:37;102178.16;;;17.77;48.75
75418;BME280;63997;52.112;5.420;2023-04-29T13:04:04;102179.28;;;17.76;49.74
75418;BME280;63997;52.112;5.420;2023-04-29T13:06:34;102177.56;;;18.32;50.84
75418;BME280;63997;52.112;5.420;2023-04-29T13:09:06;102175.41;;;18.50;49.18